Main page
METAR-TAF:

METAR-TAF

Airports :

Murcia–San Javier Airport

Murcia, Spain

latitude: 37-47N, longitude: 000-48W, elevation: 5 m

Current weather observation

The report was made 23 minutes ago, at 15:30 UTC
Wind 7 kt from the East/Southeast, varying between East and South/Southeast
Temperature 16°C
Humidity 55%
Pressure 1017 hPa
Visibility 10 km or more
no clouds below 1500 m and no cumulonimbus

METAR: LELC 281530Z 12007KT 080V160 CAVOK 16/07 Q1017 NOSIG

Time: 16:53 (15:53 UTC)

Forecast

The report was made 4 hours and 53 minutes ago, at 11:00 UTC
Forecast valid from 28 at 12 UTC to 29 at 12 UTC
Wind 6 kt from the East
Visibility 10 km or more
Scattered clouds at a height of 4000 ft

TAF: LELC 281100Z 2812/2912 08006KT 9999 SCT040 TX16/2813Z TN08/2906Z

Weather observations and forecasts of more than 4000 airports (METAR and TAF reports).

The available stations are represented by yellow and red dots on the map.

Hover mouse over dot to see the name of the station.

Then click to see weather observations and forecasts.

To change the map : click on the green buttons with a black cross to zoom in, on the green button with a dash to zoom out, or on the green arrows for adjacent maps.


METAR-TAF: